sensor_id;sensor_type;location;lat;lon;timestamp;temperature;humidity
11140;DHT22;5624;49.388;11.350;2023-09-19T00:01:33;15.80;99.90
11140;DHT22;5624;49.388;11.350;2023-09-19T00:03:59;15.80;99.90
11140;DHT22;5624;49.388;11.350;2023-09-19T00:06:29;15.80;99.90
11140;DHT22;5624;49.388;11.350;2023-09-19T00:08:57;15.90;99.90
11140;DHT22;5624;49.388;11.350;2023-09-19T00:11:24;15.90;99.90
11140;DHT22;5624;49.388;11.350;2023-09-19T00:13:52;15.80;99.90
11140;DHT22;5624;49.388;11.350;2023-09-19T00:16:17;15.80;99.90
11140;DHT22;5624;49.388;11.350;2023-09-19T00:18:44;15.80;99.90
11140;DHT22;5624;49.388;11.350;2023-09-19T00:21:10;15.90;99.90
11140;DHT22;5624;49.388;11.350;2023-09-19T00:23:35;15.80;99.90
11140;DHT22;5624;49.388;11.350;2023-09-19T00:26:01;15.80;99.90
11140;DHT22;5624;49.388;11.350;2023-09-19T00:28:30;15.70;99.90
11140;DHT22;5624;49.388;11.350;2023-09-19T00:30:57;15.70;99.90
11140;DHT22;5624;49.388;11.350;2023-09-19T00:33:22;15.60;99.90
11140;DHT22;5624;49.388;11.350;2023-09-19T00:35:54;15.60;99.90
11140;DHT22;5624;49.388;11.350;2023-09-19T00:38:22;15.60;99.90
11140;DHT22;5624;49.388;11.350;2023-09-19T00:40:50;15.60;99.90
11140;DHT22;5624;49.388;11.350;2023-09-19T00:43:19;15.50;99.90
11140;DHT22;5624;49.388;11.350;2023-09-19T00:45:48;15.50;99.90
11140;DHT22;5624;49.388;11.350;2023-09-19T00:48:15;15.60;99.90
11140;DHT22;5624;49.388;11.350;2023-09-19T00:50:42;15.50;99.90
11140;DHT22;5624;49.388;11.350;2023-09-19T00:53:09;15.50;99.90
11140;DHT22;5624;49.388;11.350;2023-09-19T00:55:39;15.50;99.90
11140;DHT22;5624;49.388;11.350;2023-09-19T00:58:08;15.50;99.90
11140;DHT22;5624;49.388;11.350;2023-09-19T01:00:34;15.30;99.90
11140;DHT22;5624;49.388;11.350;2023-09-19T01:03:00;15.30;99.90
11140;DHT22;5624;49.388;11.350;2023-09-19T01:05:32;15.40;99.90
11140;DHT22;5624;49.388;11.350;2023-09-19T01:07:58;15.40;99.90
11140;DHT22;5624;49.388;11.350;2023-09-19T01:10:24;15.40;99.90
11140;DHT22;5624;49.388;11.350;2023-09-19T01:23:23;15.50;99.90
11140;DHT22;5624;49.388;11.350;2023-09-19T01:26:05;15.50;99.90
11140;DHT22;5624;49.388;11.350;2023-09-19T01:31:40;15.60;99.90
11140;DHT22;5624;49.388;11.350;2023-09-19T01:34:07;15.60;99.90
11140;DHT22;5624;49.388;11.350;2023-09-19T01:36:36;15.50;99.90
11140;DHT22;5624;49.388;11.350;2023-09-19T01:39:08;15.50;99.90
11140;DHT22;5624;49.388;11.350;2023-09-19T01:41:56;15.50;99.90
11140;DHT22;5624;49.388;11.350;2023-09-19T01:44:36;15.50;99.90
11140;DHT22;5624;49.388;11.350;2023-09-19T01:47:23;15.50;99.90
11140;DHT22;5624;49.388;11.350;2023-09-19T01:49:55;15.50;99.90
11140;DHT22;5624;49.388;11.350;2023-09-19T01:52:28;15.40;99.90
11140;DHT22;5624;49.388;11.350;2023-09-19T01:55:05;15.40;99.90
11140;DHT22;5624;49.388;11.350;2023-09-19T01:58:01;15.40;99.90
11140;DHT22;5624;49.388;11.350;2023-09-19T02:00:34;15.50;99.90
11140;DHT22;5624;49.388;11.350;2023-09-19T02:03:02;15.50;99.90
11140;DHT22;5624;49.388;11.350;2023-09-19T02:05:28;15.40;99.90
11140;DHT22;5624;49.388;11.350;2023-09-19T02:07:54;15.40;99.90
11140;DHT22;5624;49.388;11.350;2023-09-19T02:10:21;15.40;99.90
11140;DHT22;5624;49.388;11.350;2023-09-19T02:12:47;15.30;99.90
11140;DHT22;5624;49.388;11.350;2023-09-19T02:15:13;15.40;99.90
11140;DHT22;5624;49.388;11.350;2023-09-19T02:17:41;15.30;99.90
11140;DHT22;5624;49.388;11.350;2023-09-19T02:20:08;15.30;99.90
11140;DHT22;5624;49.388;11.350;2023-09-19T02:22:35;15.30;99.90
11140;DHT22;5624;49.388;11.350;2023-09-19T02:25:01;15.40;99.90
11140;DHT22;5624;49.388;11.350;2023-09-19T02:27:27;15.30;99.90
11140;DHT22;5624;49.388;11.350;2023-09-19T02:29:53;15.30;99.90
11140;DHT22;5624;49.388;11.350;2023-09-19T02:32:19;15.30;99.90
11140;DHT22;5624;49.388;11.350;2023-09-19T02:34:45;15.30;99.90
11140;DHT22;5624;49.388;11.350;2023-09-19T02:37:10;15.40;99.90
11140;DHT22;5624;49.388;11.350;2023-09-19T02:39:36;15.40;99.90
11140;DHT22;5624;49.388;11.350;2023-09-19T02:42:02;15.40;99.90
11140;DHT22;5624;49.388;11.350;2023-09-19T02:44:29;15.40;99.90
11140;DHT22;5624;49.388;11.350;2023-09-19T02:46:55;15.40;99.90
11140;DHT22;5624;49.388;11.350;2023-09-19T02:49:22;15.40;99.90
11140;DHT22;5624;49.388;11.350;2023-09-19T02:51:48;15.40;99.90
11140;DHT22;5624;49.388;11.350;2023-09-19T02:54:13;15.40;99.90
11140;DHT22;5624;49.388;11.350;2023-09-19T02:56:41;15.40;99.90
11140;DHT22;5624;49.388;11.350;2023-09-19T02:59:06;15.30;99.90
11140;DHT22;5624;49.388;11.350;2023-09-19T03:01:32;15.40;99.90
11140;DHT22;5624;49.388;11.350;2023-09-19T03:03:59;15.40;99.90
11140;DHT22;5624;49.388;11.350;2023-09-19T03:06:24;15.40;99.90
11140;DHT22;5624;49.388;11.350;2023-09-19T03:08:50;15.40;99.90
11140;DHT22;5624;49.388;11.350;2023-09-19T03:11:17;15.50;99.90
11140;DHT22;5624;49.388;11.350;2023-09-19T03:13:50;15.50;99.90
11140;DHT22;5624;49.388;11.350;2023-09-19T03:16:16;15.50;99.90
11140;DHT22;5624;49.388;11.350;2023-09-19T03:18:41;15.40;99.90
11140;DHT22;5624;49.388;11.350;2023-09-19T03:21:07;15.40;99.90
11140;DHT22;5624;49.388;11.350;2023-09-19T03:23:33;15.50;99.90
11140;DHT22;5624;49.388;11.350;2023-09-19T03:25:58;15.50;99.90
11140;DHT22;5624;49.388;11.350;2023-09-19T03:28:24;15.50;99.90
11140;DHT22;5624;49.388;11.350;2023-09-19T03:31:04;15.50;99.90
11140;DHT22;5624;49.388;11.350;2023-09-19T03:33:30;15.50;99.90
11140;DHT22;5624;49.388;11.350;2023-09-19T03:35:59;15.40;99.90
11140;DHT22;5624;49.388;11.350;2023-09-19T03:38:26;15.40;99.90
11140;DHT22;5624;49.388;11.350;2023-09-19T03:40:53;15.40;99.90
11140;DHT22;5624;49.388;11.350;2023-09-19T03:43:18;15.40;99.90
11140;DHT22;5624;49.388;11.350;2023-09-19T03:45:44;15.30;99.90
11140;DHT22;5624;49.388;11.350;2023-09-19T03:48:12;15.30;99.90
11140;DHT22;5624;49.388;11.350;2023-09-19T03:50:38;15.30;99.90
11140;DHT22;5624;49.388;11.350;2023-09-19T03:53:04;15.30;99.90
11140;DHT22;5624;49.388;11.350;2023-09-19T03:55:29;15.20;99.90
11140;DHT22;5624;49.388;11.350;2023-09-19T03:58:02;15.20;99.90
11140;DHT22;5624;49.388;11.350;2023-09-19T04:00:27;15.20;99.90
11140;DHT22;5624;49.388;11.350;2023-09-19T04:02:55;15.20;99.90
11140;DHT22;5624;49.388;11.350;2023-09-19T04:05:22;15.20;99.90
11140;DHT22;5624;49.388;11.350;2023-09-19T04:07:48;15.20;99.90
11140;DHT22;5624;49.388;11.350;2023-09-19T04:10:13;15.20;99.90
11140;DHT22;5624;49.388;11.350;2023-09-19T04:12:40;15.20;99.90
11140;DHT22;5624;49.388;11.350;2023-09-19T04:15:06;15.20;99.90
11140;DHT22;5624;49.388;11.350;2023-09-19T04:17:32;15.20;99.90
11140;DHT22;5624;49.388;11.350;2023-09-19T04:20:00;15.20;99.90
11140;DHT22;5624;49.388;11.350;2023-09-19T04:22:26;15.20;99.90
11140;DHT22;5624;49.388;11.350;2023-09-19T04:24:51;15.20;99.90
11140;DHT22;5624;49.388;11.350;2023-09-19T04:27:17;15.20;99.90
11140;DHT22;5624;49.388;11.350;2023-09-19T04:29:44;15.20;99.90
11140;DHT22;5624;49.388;11.350;2023-09-19T04:32:10;15.20;99.90
11140;DHT22;5624;49.388;11.350;2023-09-19T04:34:36;15.20;99.90
11140;DHT22;5624;49.388;11.350;2023-09-19T04:37:02;15.20;99.90
11140;DHT22;5624;49.388;11.350;2023-09-19T04:39:29;15.20;99.90
11140;DHT22;5624;49.388;11.350;2023-09-19T04:41:55;15.20;99.90
11140;DHT22;5624;49.388;11.350;2023-09-19T04:44:20;15.20;99.90
11140;DHT22;5624;49.388;11.350;2023-09-19T04:46:46;15.20;99.90
11140;DHT22;5624;49.388;11.350;2023-09-19T04:49:12;15.20;99.90
11140;DHT22;5624;49.388;11.350;2023-09-19T04:51:38;15.10;99.90
11140;DHT22;5624;49.388;11.350;2023-09-19T04:54:05;15.10;99.90
11140;DHT22;5624;49.388;11.350;2023-09-19T04:56:30;15.10;99.90
11140;DHT22;5624;49.388;11.350;2023-09-19T04:58:57;15.10;99.90
11140;DHT22;5624;49.388;11.350;2023-09-19T05:01:24;15.20;99.90
11140;DHT22;5624;49.388;11.350;2023-09-19T05:03:50;15.20;99.90
11140;DHT22;5624;49.388;11.350;2023-09-19T05:06:19;15.20;99.90
11140;DHT22;5624;49.388;11.350;2023-09-19T05:08:47;15.20;99.90
11140;DHT22;5624;49.388;11.350;2023-09-19T05:11:17;15.20;99.90
11140;DHT22;5624;49.388;11.350;2023-09-19T05:13:42;15.30;99.90
11140;DHT22;5624;49.388;11.350;2023-09-19T05:16:08;15.30;99.90
11140;DHT22;5624;49.388;11.350;2023-09-19T05:18:35;15.30;99.90
11140;DHT22;5624;49.388;11.350;2023-09-19T05:21:02;15.30;99.90
11140;DHT22;5624;49.388;11.350;2023-09-19T05:23:28;15.30;99.90
11140;DHT22;5624;49.388;11.350;2023-09-19T05:25:54;15.30;99.90
11140;DHT22;5624;49.388;11.350;2023-09-19T05:28:20;15.30;99.90
11140;DHT22;5624;49.388;11.350;2023-09-19T05:30:45;15.30;99.90
11140;DHT22;5624;49.388;11.350;2023-09-19T05:33:12;15.30;99.90
11140;DHT22;5624;49.388;11.350;2023-09-19T05:35:38;15.30;99.90
11140;DHT22;5624;49.388;11.350;2023-09-19T05:38:07;15.30;99.90
11140;DHT22;5624;49.388;11.350;2023-09-19T05:40:38;15.40;99.90
11140;DHT22;5624;49.388;11.350;2023-09-19T05:43:06;15.40;99.90
11140;DHT22;5624;49.388;11.350;2023-09-19T05:45:31;15.50;99.90
11140;DHT22;5624;49.388;11.350;2023-09-19T05:48:08;15.50;99.90
11140;DHT22;5624;49.388;11.350;2023-09-19T05:50:34;15.50;99.90
11140;DHT22;5624;49.388;11.350;2023-09-19T05:52:59;15.60;99.90
11140;DHT22;5624;49.388;11.350;2023-09-19T05:55:25;15.60;99.90
11140;DHT22;5624;49.388;11.350;2023-09-19T05:57:51;15.60;99.90
11140;DHT22;5624;49.388;11.350;2023-09-19T06:00:23;15.60;99.90
11140;DHT22;5624;49.388;11.350;2023-09-19T06:02:50;15.60;99.90
11140;DHT22;5624;49.388;11.350;2023-09-19T06:05:17;15.60;99.90
11140;DHT22;5624;49.388;11.350;2023-09-19T06:07:43;15.60;99.90
11140;DHT22;5624;49.388;11.350;2023-09-19T06:10:08;15.60;99.90
11140;DHT22;5624;49.388;11.350;2023-09-19T06:12:41;15.60;99.90
11140;DHT22;5624;49.388;11.350;2023-09-19T06:15:11;15.60;99.90
11140;DHT22;5624;49.388;11.350;2023-09-19T06:17:53;15.50;99.90
11140;DHT22;5624;49.388;11.350;2023-09-19T06:20:23;15.50;99.90
11140;DHT22;5624;49.388;11.350;2023-09-19T06:22:49;15.60;99.90
11140;DHT22;5624;49.388;11.350;2023-09-19T06:25:16;15.60;99.90
11140;DHT22;5624;49.388;11.350;2023-09-19T06:27:49;15.60;99.90
11140;DHT22;5624;49.388;11.350;2023-09-19T06:30:17;15.70;99.10
11140;DHT22;5624;49.388;11.350;2023-09-19T06:32:43;15.70;98.80
11140;DHT22;5624;49.388;11.350;2023-09-19T06:35:10;15.70;98.90
11140;DHT22;5624;49.388;11.350;2023-09-19T06:37:37;15.80;98.50
11140;DHT22;5624;49.388;11.350;2023-09-19T06:40:12;15.90;98.40
11140;DHT22;5624;49.388;11.350;2023-09-19T06:42:41;15.90;97.40
11140;DHT22;5624;49.388;11.350;2023-09-19T06:45:08;16.00;97.00
11140;DHT22;5624;49.388;11.350;2023-09-19T06:47:37;16.10;97.10
11140;DHT22;5624;49.388;11.350;2023-09-19T06:50:02;17.00;94.90
11140;DHT22;5624;49.388;11.350;2023-09-19T06:52:29;17.90;91.40
11140;DHT22;5624;49.388;11.350;2023-09-19T06:54:54;18.90;85.90
11140;DHT22;5624;49.388;11.350;2023-09-19T06:57:20;19.60;82.00
11140;DHT22;5624;49.388;11.350;2023-09-19T06:59:46;20.10;77.90
11140;DHT22;5624;49.388;11.350;2023-09-19T07:02:11;20.70;75.50
11140;DHT22;5624;49.388;11.350;2023-09-19T07:04:38;21.20;72.90
11140;DHT22;5624;49.388;11.350;2023-09-19T07:07:03;21.70;70.50
11140;DHT22;5624;49.388;11.350;2023-09-19T07:09:29;22.00;69.90
11140;DHT22;5624;49.388;11.350;2023-09-19T07:11:55;22.20;68.90
11140;DHT22;5624;49.388;11.350;2023-09-19T07:14:21;22.40;66.80
11140;DHT22;5624;49.388;11.350;2023-09-19T07:16:46;22.60;66.50
11140;DHT22;5624;49.388;11.350;2023-09-19T07:19:13;22.80;64.50
11140;DHT22;5624;49.388;11.350;2023-09-19T07:21:40;23.10;63.90
11140;DHT22;5624;49.388;11.350;2023-09-19T07:24:06;23.20;64.80
11140;DHT22;5624;49.388;11.350;2023-09-19T07:26:33;23.50;62.30
11140;DHT22;5624;49.388;11.350;2023-09-19T07:28:59;23.70;60.40
11140;DHT22;5624;49.388;11.350;2023-09-19T07:31:25;23.40;60.30
11140;DHT22;5624;49.388;11.350;2023-09-19T07:33:52;23.00;60.80
11140;DHT22;5624;49.388;11.350;2023-09-19T07:36:18;22.70;61.30
11140;DHT22;5624;49.388;11.350;2023-09-19T07:38:45;22.90;62.10
11140;DHT22;5624;49.388;11.350;2023-09-19T07:41:10;23.40;61.90
11140;DHT22;5624;49.388;11.350;2023-09-19T07:43:36;24.10;60.40
11140;DHT22;5624;49.388;11.350;2023-09-19T07:46:08;24.80;56.50
11140;DHT22;5624;49.388;11.350;2023-09-19T07:48:37;24.70;56.00
11140;DHT22;5624;49.388;11.350;2023-09-19T07:51:07;25.00;54.30
11140;DHT22;5624;49.388;11.350;2023-09-19T07:53:33;25.20;54.50
11140;DHT22;5624;49.388;11.350;2023-09-19T07:56:08;25.60;52.30
11140;DHT22;5624;49.388;11.350;2023-09-19T07:58:34;25.30;52.00
11140;DHT22;5624;49.388;11.350;2023-09-19T08:01:05;24.90;51.80
11140;DHT22;5624;49.388;11.350;2023-09-19T08:03:32;24.30;53.10
11140;DHT22;5624;49.388;11.350;2023-09-19T08:05:58;23.70;54.00
11140;DHT22;5624;49.388;11.350;2023-09-19T08:08:23;23.20;56.50
11140;DHT22;5624;49.388;11.350;2023-09-19T08:10:53;22.80;59.20
11140;DHT22;5624;49.388;11.350;2023-09-19T08:13:19;23.00;57.10
11140;DHT22;5624;49.388;11.350;2023-09-19T08:15:46;22.90;56.40
11140;DHT22;5624;49.388;11.350;2023-09-19T08:18:13;22.90;58.50
11140;DHT22;5624;49.388;11.350;2023-09-19T08:20:39;23.00;58.20
11140;DHT22;5624;49.388;11.350;2023-09-19T08:23:06;22.70;58.10
11140;DHT22;5624;49.388;11.350;2023-09-19T08:25:32;22.50;59.40
11140;DHT22;5624;49.388;11.350;2023-09-19T08:27:58;22.30;58.50
11140;DHT22;5624;49.388;11.350;2023-09-19T08:30:27;22.50;58.80
11140;DHT22;5624;49.388;11.350;2023-09-19T08:32:58;22.80;57.30
11140;DHT22;5624;49.388;11.350;2023-09-19T08:35:24;23.10;56.20
11140;DHT22;5624;49.388;11.350;2023-09-19T08:37:50;23.50;55.60
11140;DHT22;5624;49.388;11.350;2023-09-19T08:40:17;24.00;55.10
11140;DHT22;5624;49.388;11.350;2023-09-19T08:42:52;24.50;52.50
11140;DHT22;5624;49.388;11.350;2023-09-19T08:45:20;24.70;53.00
11140;DHT22;5624;49.388;11.350;2023-09-19T08:50:29;24.40;52.10
11140;DHT22;5624;49.388;11.350;2023-09-19T08:53:01;24.00;52.20
11140;DHT22;5624;49.388;11.350;2023-09-19T08:55:28;23.60;55.00
11140;DHT22;5624;49.388;11.350;2023-09-19T08:58:01;23.40;54.20
11140;DHT22;5624;49.388;11.350;2023-09-19T09:00:28;23.20;54.70
11140;DHT22;5624;49.388;11.350;2023-09-19T09:02:56;22.90;54.70
11140;DHT22;5624;49.388;11.350;2023-09-19T09:05:24;22.80;55.10
11140;DHT22;5624;49.388;11.350;2023-09-19T09:07:50;22.60;55.60
11140;DHT22;5624;49.388;11.350;2023-09-19T09:10:20;22.50;54.10
11140;DHT22;5624;49.388;11.350;2023-09-19T09:12:52;22.40;54.70
11140;DHT22;5624;49.388;11.350;2023-09-19T09:15:22;22.10;55.70
11140;DHT22;5624;49.388;11.350;2023-09-19T09:17:49;22.00;56.40
11140;DHT22;5624;49.388;11.350;2023-09-19T09:20:25;21.90;56.70
11140;DHT22;5624;49.388;11.350;2023-09-19T09:22:51;22.10;55.00
11140;DHT22;5624;49.388;11.350;2023-09-19T09:25:18;22.00;56.10
11140;DHT22;5624;49.388;11.350;2023-09-19T09:27:48;21.90;55.10
11140;DHT22;5624;49.388;11.350;2023-09-19T09:30:36;22.10;54.10
11140;DHT22;5624;49.388;11.350;2023-09-19T09:33:12;22.20;52.00
11140;DHT22;5624;49.388;11.350;2023-09-19T09:35:57;22.10;52.80
11140;DHT22;5624;49.388;11.350;2023-09-19T09:38:27;22.00;52.90
11140;DHT22;5624;49.388;11.350;2023-09-19T09:40:54;21.90;54.60
11140;DHT22;5624;49.388;11.350;2023-09-19T09:43:39;21.50;54.90
11140;DHT22;5624;49.388;11.350;2023-09-19T09:46:15;21.10;55.60
11140;DHT22;5624;49.388;11.350;2023-09-19T09:48:59;21.00;57.00
11140;DHT22;5624;49.388;11.350;2023-09-19T09:52:07;20.80;57.10
11140;DHT22;5624;49.388;11.350;2023-09-19T09:54:35;21.00;58.10
11140;DHT22;5624;49.388;11.350;2023-09-19T09:57:06;21.40;58.10
11140;DHT22;5624;49.388;11.350;2023-09-19T09:59:47;21.80;56.10
11140;DHT22;5624;49.388;11.350;2023-09-19T10:02:57;22.00;54.70
11140;DHT22;5624;49.388;11.350;2023-09-19T10:05:17;22.10;55.30
11140;DHT22;5624;49.388;11.350;2023-09-19T10:07:46;22.30;55.60
11140;DHT22;5624;49.388;11.350;2023-09-19T10:10:37;22.40;54.40
11140;DHT22;5624;49.388;11.350;2023-09-19T10:13:07;22.20;55.20
11140;DHT22;5624;49.388;11.350;2023-09-19T10:15:38;22.20;54.90
11140;DHT22;5624;49.388;11.350;2023-09-19T10:18:05;22.10;53.70
11140;DHT22;5624;49.388;11.350;2023-09-19T10:20:33;22.00;53.30
11140;DHT22;5624;49.388;11.350;2023-09-19T10:23:07;21.90;53.20
11140;DHT22;5624;49.388;11.350;2023-09-19T10:25:43;21.90;54.00
11140;DHT22;5624;49.388;11.350;2023-09-19T10:28:10;21.70;53.00
11140;DHT22;5624;49.388;11.350;2023-09-19T10:30:43;21.50;54.70
11140;DHT22;5624;49.388;11.350;2023-09-19T10:33:12;22.10;55.20
11140;DHT22;5624;49.388;11.350;2023-09-19T10:35:39;22.30;53.40
11140;DHT22;5624;49.388;11.350;2023-09-19T10:38:06;22.10;53.90
11140;DHT22;5624;49.388;11.350;2023-09-19T10:40:35;21.70;53.70
11140;DHT22;5624;49.388;11.350;2023-09-19T10:43:05;21.60;55.10
11140;DHT22;5624;49.388;11.350;2023-09-19T10:45:35;21.70;55.80
11140;DHT22;5624;49.388;11.350;2023-09-19T10:48:04;21.70;55.00
11140;DHT22;5624;49.388;11.350;2023-09-19T10:50:51;21.70;55.40
11140;DHT22;5624;49.388;11.350;2023-09-19T10:53:18;22.40;57.20
11140;DHT22;5624;49.388;11.350;2023-09-19T10:55:52;23.10;53.70
11140;DHT22;5624;49.388;11.350;2023-09-19T10:58:26;23.40;50.90
11140;DHT22;5624;49.388;11.350;2023-09-19T11:00:58;23.80;53.10
11140;DHT22;5624;49.388;11.350;2023-09-19T11:03:38;23.80;49.60
11140;DHT22;5624;49.388;11.350;2023-09-19T11:06:17;24.00;48.60
11140;DHT22;5624;49.388;11.350;2023-09-19T11:09:03;24.20;47.80
11140;DHT22;5624;49.388;11.350;2023-09-19T11:14:40;24.10;51.50
11140;DHT22;5624;49.388;11.350;2023-09-19T11:30:44;22.50;52.30
11140;DHT22;5624;49.388;11.350;2023-09-19T11:36:05;22.80;50.60
11140;DHT22;5624;49.388;11.350;2023-09-19T11:43:48;22.80;52.30
11140;DHT22;5624;49.388;11.350;2023-09-19T11:46:16;23.00;50.20
11140;DHT22;5624;49.388;11.350;2023-09-19T11:48:48;22.70;49.70
11140;DHT22;5624;49.388;11.350;2023-09-19T11:51:19;22.20;51.20
11140;DHT22;5624;49.388;11.350;2023-09-19T11:53:48;22.10;52.40
11140;DHT22;5624;49.388;11.350;2023-09-19T11:56:18;21.80;52.20
11140;DHT22;5624;49.388;11.350;2023-09-19T11:58:46;21.70;54.20
11140;DHT22;5624;49.388;11.350;2023-09-19T12:01:19;21.50;52.30
11140;DHT22;5624;49.388;11.350;2023-09-19T12:03:48;20.90;54.00
11140;DHT22;5624;49.388;11.350;2023-09-19T12:06:18;20.70;54.90
11140;DHT22;5624;49.388;11.350;2023-09-19T12:08:44;20.60;56.90
11140;DHT22;5624;49.388;11.350;2023-09-19T12:11:16;20.50;57.80
11140;DHT22;5624;49.388;11.350;2023-09-19T12:13:45;20.70;58.50
11140;DHT22;5624;49.388;11.350;2023-09-19T12:16:15;20.70;56.70
11140;DHT22;5624;49.388;11.350;2023-09-19T12:18:43;20.60;56.50
11140;DHT22;5624;49.388;11.350;2023-09-19T12:21:24;20.90;56.60
11140;DHT22;5624;49.388;11.350;2023-09-19T12:24:11;21.30;56.10
11140;DHT22;5624;49.388;11.350;2023-09-19T12:26:39;21.60;54.30
11140;DHT22;5624;49.388;11.350;2023-09-19T12:29:14;21.80;53.50
11140;DHT22;5624;49.388;11.350;2023-09-19T12:31:58;21.80;51.70
11140;DHT22;5624;49.388;11.350;2023-09-19T12:34:26;21.80;51.50
11140;DHT22;5624;49.388;11.350;2023-09-19T12:37:08;21.70;51.60
11140;DHT22;5624;49.388;11.350;2023-09-19T12:39:41;21.80;51.80
11140;DHT22;5624;49.388;11.350;2023-09-19T12:42:09;21.80;53.20
11140;DHT22;5624;49.388;11.350;2023-09-19T12:44:44;21.90;52.80
11140;DHT22;5624;49.388;11.350;2023-09-19T12:47:19;21.90;51.00
11140;DHT22;5624;49.388;11.350;2023-09-19T12:50:13;21.90;50.30
11140;DHT22;5624;49.388;11.350;2023-09-19T12:52:47;22.10;52.10
11140;DHT22;5624;49.388;11.350;2023-09-19T12:55:30;22.00;50.00
11140;DHT22;5624;49.388;11.350;2023-09-19T12:58:13;22.20;49.80
11140;DHT22;5624;49.388;11.350;2023-09-19T13:00:44;22.30;49.40
11140;DHT22;5624;49.388;11.350;2023-09-19T13:03:18;22.20;49.70
11140;DHT22;5624;49.388;11.350;2023-09-19T13:05:55;22.20;50.30
11140;DHT22;5624;49.388;11.350;2023-09-19T13:08:29;22.20;50.20
11140;DHT22;5624;49.388;11.350;2023-09-19T13:11:16;21.90;51.10
11140;DHT22;5624;49.388;11.350;2023-09-19T13:13:45;21.60;53.30
11140;DHT22;5624;49.388;11.350;2023-09-19T13:16:15;21.40;52.30
11140;DHT22;5624;49.388;11.350;2023-09-19T13:18:49;21.40;51.50
11140;DHT22;5624;49.388;11.350;2023-09-19T13:21:17;21.50;52.60
11140;DHT22;5624;49.388;11.350;2023-09-19T13:23:54;21.50;51.60
11140;DHT22;5624;49.388;11.350;2023-09-19T13:26:27;21.80;53.00
11140;DHT22;5624;49.388;11.350;2023-09-19T13:28:56;21.90;51.80
11140;DHT22;5624;49.388;11.350;2023-09-19T13:31:22;21.70;52.20
11140;DHT22;5624;49.388;11.350;2023-09-19T13:33:49;21.70;52.70
11140;DHT22;5624;49.388;11.350;2023-09-19T13:36:15;21.90;53.00
11140;DHT22;5624;49.388;11.350;2023-09-19T13:38:42;21.90;54.10
11140;DHT22;5624;49.388;11.350;2023-09-19T13:41:09;22.00;53.20
11140;DHT22;5624;49.388;11.350;2023-09-19T13:43:36;22.10;51.80
11140;DHT22;5624;49.388;11.350;2023-09-19T13:46:02;22.10;51.20
11140;DHT22;5624;49.388;11.350;2023-09-19T13:48:28;22.00;50.60
11140;DHT22;5624;49.388;11.350;2023-09-19T13:50:55;21.80;51.70
11140;DHT22;5624;49.388;11.350;2023-09-19T13:53:21;21.60;50.90
11140;DHT22;5624;49.388;11.350;2023-09-19T13:55:47;21.50;51.30
11140;DHT22;5624;49.388;11.350;2023-09-19T13:58:14;21.60;52.30
11140;DHT22;5624;49.388;11.350;2023-09-19T14:00:40;21.50;52.00
11140;DHT22;5624;49.388;11.350;2023-09-19T14:03:06;21.50;51.50
11140;DHT22;5624;49.388;11.350;2023-09-19T14:05:31;21.50;53.20
11140;DHT22;5624;49.388;11.350;2023-09-19T14:07:58;21.40;52.40
11140;DHT22;5624;49.388;11.350;2023-09-19T14:10:28;21.30;52.60
11140;DHT22;5624;49.388;11.350;2023-09-19T14:12:55;21.20;53.60
11140;DHT22;5624;49.388;11.350;2023-09-19T14:15:21;21.30;53.40
11140;DHT22;5624;49.388;11.350;2023-09-19T14:17:55;21.50;52.90
11140;DHT22;5624;49.388;11.350;2023-09-19T14:20:21;21.40;54.20
11140;DHT22;5624;49.388;11.350;2023-09-19T14:22:48;21.20;53.10
11140;DHT22;5624;49.388;11.350;2023-09-19T14:25:13;21.10;53.00
11140;DHT22;5624;49.388;11.350;2023-09-19T14:27:39;21.10;55.50
11140;DHT22;5624;49.388;11.350;2023-09-19T14:30:06;21.00;54.50
11140;DHT22;5624;49.388;11.350;2023-09-19T14:32:32;20.80;54.00
11140;DHT22;5624;49.388;11.350;2023-09-19T14:34:57;20.80;54.90
11140;DHT22;5624;49.388;11.350;2023-09-19T14:37:23;20.70;56.40
11140;DHT22;5624;49.388;11.350;2023-09-19T14:39:48;20.60;55.40
11140;DHT22;5624;49.388;11.350;2023-09-19T14:42:14;20.50;55.90
11140;DHT22;5624;49.388;11.350;2023-09-19T14:44:43;20.30;54.50
11140;DHT22;5624;49.388;11.350;2023-09-19T14:47:09;20.30;56.50
11140;DHT22;5624;49.388;11.350;2023-09-19T14:49:38;20.20;57.80
11140;DHT22;5624;49.388;11.350;2023-09-19T14:52:07;20.10;57.20
11140;DHT22;5624;49.388;11.350;2023-09-19T14:54:33;20.00;57.40
11140;DHT22;5624;49.388;11.350;2023-09-19T14:57:00;20.00;55.70
11140;DHT22;5624;49.388;11.350;2023-09-19T14:59:34;19.90;55.10
11140;DHT22;5624;49.388;11.350;2023-09-19T15:02:04;19.90;56.40
11140;DHT22;5624;49.388;11.350;2023-09-19T15:04:30;19.80;55.30
11140;DHT22;5624;49.388;11.350;2023-09-19T15:06:55;19.80;56.60
11140;DHT22;5624;49.388;11.350;2023-09-19T15:09:24;19.70;56.90
11140;DHT22;5624;49.388;11.350;2023-09-19T15:11:55;19.70;55.00
11140;DHT22;5624;49.388;11.350;2023-09-19T15:14:21;19.70;54.70
11140;DHT22;5624;49.388;11.350;2023-09-19T15:16:48;19.60;55.70
11140;DHT22;5624;49.388;11.350;2023-09-19T15:19:14;19.60;55.30
11140;DHT22;5624;49.388;11.350;2023-09-19T15:21:41;19.50;58.20
11140;DHT22;5624;49.388;11.350;2023-09-19T15:24:07;19.50;56.60
11140;DHT22;5624;49.388;11.350;2023-09-19T15:26:36;19.40;58.30
11140;DHT22;5624;49.388;11.350;2023-09-19T15:29:07;19.40;57.30
11140;DHT22;5624;49.388;11.350;2023-09-19T15:31:33;19.40;58.00
11140;DHT22;5624;49.388;11.350;2023-09-19T15:34:02;19.40;57.30
11140;DHT22;5624;49.388;11.350;2023-09-19T15:36:27;19.30;57.80
11140;DHT22;5624;49.388;11.350;2023-09-19T15:39:00;19.30;57.60
11140;DHT22;5624;49.388;11.350;2023-09-19T15:41:39;19.20;58.10
11140;DHT22;5624;49.388;11.350;2023-09-19T15:44:13;19.10;59.10
11140;DHT22;5624;49.388;11.350;2023-09-19T15:46:40;19.10;59.70
11140;DHT22;5624;49.388;11.350;2023-09-19T15:49:06;19.00;60.10
11140;DHT22;5624;49.388;11.350;2023-09-19T15:51:33;19.00;60.10
11140;DHT22;5624;49.388;11.350;2023-09-19T15:53:58;19.00;60.40
11140;DHT22;5624;49.388;11.350;2023-09-19T15:56:26;19.00;59.10
11140;DHT22;5624;49.388;11.350;2023-09-19T15:58:55;19.00;58.90
11140;DHT22;5624;49.388;11.350;2023-09-19T16:01:22;18.90;59.00
11140;DHT22;5624;49.388;11.350;2023-09-19T16:03:50;18.90;58.40
11140;DHT22;5624;49.388;11.350;2023-09-19T16:06:19;18.80;59.60
11140;DHT22;5624;49.388;11.350;2023-09-19T16:08:47;18.80;59.60
11140;DHT22;5624;49.388;11.350;2023-09-19T16:11:13;18.70;59.40
11140;DHT22;5624;49.388;11.350;2023-09-19T16:13:40;18.60;60.20
11140;DHT22;5624;49.388;11.350;2023-09-19T16:16:11;18.50;60.40
11140;DHT22;5624;49.388;11.350;2023-09-19T16:18:48;18.50;60.70
11140;DHT22;5624;49.388;11.350;2023-09-19T16:21:14;18.40;60.30
11140;DHT22;5624;49.388;11.350;2023-09-19T16:23:43;18.30;60.80